sensor_id;sensor_type;location;lat;lon;timestamp;P1;durP1;ratioP1;P2;durP2;ratioP2
22111;SDS011;11222;50.872;4.312;2023-04-01T00:00:17;10.52;;;3.53;;
22111;SDS011;11222;50.872;4.312;2023-04-01T00:02:43;11.10;;;3.10;;
22111;SDS011;11222;50.872;4.312;2023-04-01T00:05:10;10.50;;;2.78;;
22111;SDS011;11222;50.872;4.312;2023-04-01T00:07:37;9.07;;;3.25;;
22111;SDS011;11222;50.872;4.312;2023-04-01T00:10:03;10.13;;;3.45;;
22111;SDS011;11222;50.872;4.312;2023-04-01T00:12:30;8.07;;;2.78;;
22111;SDS011;11222;50.872;4.312;2023-04-01T00:14:56;7.53;;;2.70;;
22111;SDS011;11222;50.872;4.312;2023-04-01T00:17:22;7.70;;;2.45;;
22111;SDS011;11222;50.872;4.312;2023-04-01T00:19:47;7.45;;;2.70;;
22111;SDS011;11222;50.872;4.312;2023-04-01T00:22:13;7.78;;;3.47;;
22111;SDS011;11222;50.872;4.312;2023-04-01T00:24:39;6.88;;;2.40;;
22111;SDS011;11222;50.872;4.312;2023-04-01T00:27:05;7.40;;;2.25;;
22111;SDS011;11222;50.872;4.312;2023-04-01T00:29:32;6.75;;;2.17;;
22111;SDS011;11222;50.872;4.312;2023-04-01T00:31:58;6.20;;;2.20;;
22111;SDS011;11222;50.872;4.312;2023-04-01T00:34:24;7.57;;;2.55;;
22111;SDS011;11222;50.872;4.312;2023-04-01T00:36:50;7.57;;;2.85;;
22111;SDS011;11222;50.872;4.312;2023-04-01T00:39:17;9.02;;;2.53;;
22111;SDS011;11222;50.872;4.312;2023-04-01T00:41:43;7.60;;;2.30;;
22111;SDS011;11222;50.872;4.312;2023-04-01T00:44:17;6.63;;;2.10;;
22111;SDS011;11222;50.872;4.312;2023-04-01T00:46:45;3.90;;;1.92;;
22111;SDS011;11222;50.872;4.312;2023-04-01T00:49:12;7.72;;;1.95;;
22111;SDS011;11222;50.872;4.312;2023-04-01T00:51:39;3.42;;;1.85;;
22111;SDS011;11222;50.872;4.312;2023-04-01T00:54:07;6.45;;;2.00;;
22111;SDS011;11222;50.872;4.312;2023-04-01T00:56:38;4.30;;;2.00;;
22111;SDS011;11222;50.872;4.312;2023-04-01T00:59:11;6.40;;;2.22;;
22111;SDS011;11222;50.872;4.312;2023-04-01T01:01:40;4.50;;;2.05;;
22111;SDS011;11222;50.872;4.312;2023-04-01T01:04:06;6.28;;;2.15;;
22111;SDS011;11222;50.872;4.312;2023-04-01T01:06:56;4.45;;;1.92;;
22111;SDS011;11222;50.872;4.312;2023-04-01T01:15:08;4.35;;;1.85;;
22111;SDS011;11222;50.872;4.312;2023-04-01T01:18:27;5.78;;;1.70;;
22111;SDS011;11222;50.872;4.312;2023-04-01T01:23:28;6.78;;;2.33;;
22111;SDS011;11222;50.872;4.312;2023-04-01T01:29:32;6.65;;;2.40;;
22111;SDS011;11222;50.872;4.312;2023-04-01T01:37:40;6.95;;;3.00;;
22111;SDS011;11222;50.872;4.312;2023-04-01T01:40:10;5.88;;;3.08;;
22111;SDS011;11222;50.872;4.312;2023-04-01T01:42:38;5.85;;;3.13;;
22111;SDS011;11222;50.872;4.312;2023-04-01T01:45:07;5.80;;;3.40;;
22111;SDS011;11222;50.872;4.312;2023-04-01T01:47:35;8.30;;;3.78;;
22111;SDS011;11222;50.872;4.312;2023-04-01T01:50:02;6.28;;;3.60;;
22111;SDS011;11222;50.872;4.312;2023-04-01T01:52:29;8.35;;;4.47;;
22111;SDS011;11222;50.872;4.312;2023-04-01T01:54:56;8.68;;;4.78;;
22111;SDS011;11222;50.872;4.312;2023-04-01T01:57:23;12.25;;;5.07;;
22111;SDS011;11222;50.872;4.312;2023-04-01T01:59:56;10.25;;;5.53;;
22111;SDS011;11222;50.872;4.312;2023-04-01T02:02:39;14.05;;;6.35;;
22111;SDS011;11222;50.872;4.312;2023-04-01T02:05:06;12.65;;;6.78;;
22111;SDS011;11222;50.872;4.312;2023-04-01T02:07:35;11.40;;;6.22;;
22111;SDS011;11222;50.872;4.312;2023-04-01T02:10:04;14.10;;;6.28;;
22111;SDS011;11222;50.872;4.312;2023-04-01T02:12:31;13.43;;;5.45;;
22111;SDS011;11222;50.872;4.312;2023-04-01T02:15:01;9.65;;;4.47;;
22111;SDS011;11222;50.872;4.312;2023-04-01T02:17:33;9.02;;;4.90;;
22111;SDS011;11222;50.872;4.312;2023-04-01T02:20:06;12.75;;;5.10;;
22111;SDS011;11222;50.872;4.312;2023-04-01T02:22:51;10.70;;;5.45;;
22111;SDS011;11222;50.872;4.312;2023-04-01T02:25:23;12.65;;;5.85;;
22111;SDS011;11222;50.872;4.312;2023-04-01T02:27:56;11.10;;;4.85;;
22111;SDS011;11222;50.872;4.312;2023-04-01T02:30:23;12.23;;;4.75;;
22111;SDS011;11222;50.872;4.312;2023-04-01T02:32:50;11.10;;;4.55;;
22111;SDS011;11222;50.872;4.312;2023-04-01T02:35:17;9.77;;;4.55;;
22111;SDS011;11222;50.872;4.312;2023-04-01T02:37:43;16.42;;;4.57;;
22111;SDS011;11222;50.872;4.312;2023-04-01T02:40:14;19.33;;;3.97;;
22111;SDS011;11222;50.872;4.312;2023-04-01T02:42:40;10.77;;;4.80;;
22111;SDS011;11222;50.872;4.312;2023-04-01T02:45:06;15.38;;;4.63;;
22111;SDS011;11222;50.872;4.312;2023-04-01T02:47:33;10.82;;;4.57;;
22111;SDS011;11222;50.872;4.312;2023-04-01T02:49:58;10.00;;;4.15;;
22111;SDS011;11222;50.872;4.312;2023-04-01T02:52:25;10.40;;;4.43;;
22111;SDS011;11222;50.872;4.312;2023-04-01T02:54:51;10.43;;;4.68;;
22111;SDS011;11222;50.872;4.312;2023-04-01T02:57:17;9.75;;;3.88;;
22111;SDS011;11222;50.872;4.312;2023-04-01T02:59:43;12.20;;;4.53;;
22111;SDS011;11222;50.872;4.312;2023-04-01T03:02:09;11.77;;;4.15;;
22111;SDS011;11222;50.872;4.312;2023-04-01T03:04:35;17.33;;;5.22;;
22111;SDS011;11222;50.872;4.312;2023-04-01T03:07:00;10.68;;;4.55;;
22111;SDS011;11222;50.872;4.312;2023-04-01T03:09:26;11.13;;;4.75;;
22111;SDS011;11222;50.872;4.312;2023-04-01T03:11:53;13.73;;;4.80;;
22111;SDS011;11222;50.872;4.312;2023-04-01T03:14:19;10.82;;;5.25;;
22111;SDS011;11222;50.872;4.312;2023-04-01T03:16:45;11.02;;;5.13;;
22111;SDS011;11222;50.872;4.312;2023-04-01T03:19:10;12.63;;;6.20;;
22111;SDS011;11222;50.872;4.312;2023-04-01T03:21:36;12.60;;;5.68;;
22111;SDS011;11222;50.872;4.312;2023-04-01T03:24:02;14.98;;;6.35;;
22111;SDS011;11222;50.872;4.312;2023-04-01T03:26:27;14.13;;;7.30;;
22111;SDS011;11222;50.872;4.312;2023-04-01T03:28:53;14.48;;;7.30;;
22111;SDS011;11222;50.872;4.312;2023-04-01T03:31:20;13.35;;;7.18;;
22111;SDS011;11222;50.872;4.312;2023-04-01T03:33:46;16.45;;;7.20;;
22111;SDS011;11222;50.872;4.312;2023-04-01T03:36:12;15.77;;;7.15;;
22111;SDS011;11222;50.872;4.312;2023-04-01T03:38:38;18.02;;;7.07;;
22111;SDS011;11222;50.872;4.312;2023-04-01T03:41:11;16.23;;;7.55;;
22111;SDS011;11222;50.872;4.312;2023-04-01T03:43:38;16.17;;;7.10;;
22111;SDS011;11222;50.872;4.312;2023-04-01T03:46:03;16.38;;;6.88;;
22111;SDS011;11222;50.872;4.312;2023-04-01T03:48:29;13.48;;;7.50;;
22111;SDS011;11222;50.872;4.312;2023-04-01T03:50:55;17.63;;;7.47;;
22111;SDS011;11222;50.872;4.312;2023-04-01T03:53:21;15.75;;;7.13;;
22111;SDS011;11222;50.872;4.312;2023-04-01T03:55:47;16.65;;;8.27;;
22111;SDS011;11222;50.872;4.312;2023-04-01T03:58:13;20.55;;;8.10;;
22111;SDS011;11222;50.872;4.312;2023-04-01T04:00:39;20.30;;;7.22;;
22111;SDS011;11222;50.872;4.312;2023-04-01T04:03:06;13.25;;;6.20;;
22111;SDS011;11222;50.872;4.312;2023-04-01T04:05:32;12.90;;;7.05;;
22111;SDS011;11222;50.872;4.312;2023-04-01T04:07:57;17.05;;;6.65;;
22111;SDS011;11222;50.872;4.312;2023-04-01T04:10:23;18.40;;;7.25;;
22111;SDS011;11222;50.872;4.312;2023-04-01T04:12:50;15.32;;;6.50;;
22111;SDS011;11222;50.872;4.312;2023-04-01T04:15:16;20.77;;;7.15;;
22111;SDS011;11222;50.872;4.312;2023-04-01T04:17:42;12.75;;;6.18;;
22111;SDS011;11222;50.872;4.312;2023-04-01T04:20:09;14.10;;;6.95;;
22111;SDS011;11222;50.872;4.312;2023-04-01T04:22:35;12.30;;;6.22;;
22111;SDS011;11222;50.872;4.312;2023-04-01T04:25:01;13.65;;;6.03;;
22111;SDS011;11222;50.872;4.312;2023-04-01T04:27:26;11.25;;;6.32;;
22111;SDS011;11222;50.872;4.312;2023-04-01T04:29:52;9.00;;;4.25;;
22111;SDS011;11222;50.872;4.312;2023-04-01T04:32:18;10.05;;;5.35;;
22111;SDS011;11222;50.872;4.312;2023-04-01T04:34:43;10.15;;;4.55;;
22111;SDS011;11222;50.872;4.312;2023-04-01T04:37:09;7.32;;;5.00;;
22111;SDS011;11222;50.872;4.312;2023-04-01T04:39:35;13.25;;;4.95;;
22111;SDS011;11222;50.872;4.312;2023-04-01T04:42:00;9.02;;;4.95;;
22111;SDS011;11222;50.872;4.312;2023-04-01T04:44:26;9.27;;;5.15;;
22111;SDS011;11222;50.872;4.312;2023-04-01T04:46:52;10.98;;;5.40;;
22111;SDS011;11222;50.872;4.312;2023-04-01T04:49:17;6.80;;;4.18;;
22111;SDS011;11222;50.872;4.312;2023-04-01T04:51:43;9.07;;;5.10;;
22111;SDS011;11222;50.872;4.312;2023-04-01T04:54:09;6.63;;;4.47;;
22111;SDS011;11222;50.872;4.312;2023-04-01T04:56:35;10.52;;;4.80;;
22111;SDS011;11222;50.872;4.312;2023-04-01T04:59:00;6.95;;;4.50;;
22111;SDS011;11222;50.872;4.312;2023-04-01T05:01:26;8.18;;;4.72;;
22111;SDS011;11222;50.872;4.312;2023-04-01T05:03:52;6.10;;;4.47;;
22111;SDS011;11222;50.872;4.312;2023-04-01T05:06:19;7.57;;;4.85;;
22111;SDS011;11222;50.872;4.312;2023-04-01T05:08:45;6.47;;;5.00;;
22111;SDS011;11222;50.872;4.312;2023-04-01T05:11:15;7.70;;;4.75;;
22111;SDS011;11222;50.872;4.312;2023-04-01T05:13:42;9.00;;;4.40;;
22111;SDS011;11222;50.872;4.312;2023-04-01T05:16:14;10.02;;;5.15;;
22111;SDS011;11222;50.872;4.312;2023-04-01T05:18:41;11.18;;;6.07;;
22111;SDS011;11222;50.872;4.312;2023-04-01T05:21:08;9.60;;;5.90;;
22111;SDS011;11222;50.872;4.312;2023-04-01T05:23:35;10.30;;;6.30;;
22111;SDS011;11222;50.872;4.312;2023-04-01T05:26:08;10.85;;;6.18;;
22111;SDS011;11222;50.872;4.312;2023-04-01T05:31:03;11.77;;;5.53;;
22111;SDS011;11222;50.872;4.312;2023-04-01T05:33:30;14.48;;;6.95;;
22111;SDS011;11222;50.872;4.312;2023-04-01T05:35:56;12.25;;;7.43;;
22111;SDS011;11222;50.872;4.312;2023-04-01T05:38:34;13.82;;;7.80;;
22111;SDS011;11222;50.872;4.312;2023-04-01T05:41:00;18.67;;;8.95;;
22111;SDS011;11222;50.872;4.312;2023-04-01T05:43:27;14.27;;;7.72;;
22111;SDS011;11222;50.872;4.312;2023-04-01T05:45:52;12.75;;;7.32;;
22111;SDS011;11222;50.872;4.312;2023-04-01T05:48:18;15.10;;;8.27;;
22111;SDS011;11222;50.872;4.312;2023-04-01T05:50:44;18.55;;;8.77;;
22111;SDS011;11222;50.872;4.312;2023-04-01T05:53:10;15.82;;;8.48;;
22111;SDS011;11222;50.872;4.312;2023-04-01T05:55:35;19.15;;;9.65;;
22111;SDS011;11222;50.872;4.312;2023-04-01T05:58:01;17.73;;;9.52;;
22111;SDS011;11222;50.872;4.312;2023-04-01T06:00:27;21.98;;;8.93;;
22111;SDS011;11222;50.872;4.312;2023-04-01T06:02:53;18.30;;;9.05;;
22111;SDS011;11222;50.872;4.312;2023-04-01T06:05:20;18.95;;;10.07;;
22111;SDS011;11222;50.872;4.312;2023-04-01T06:07:47;18.92;;;9.20;;
22111;SDS011;11222;50.872;4.312;2023-04-01T06:10:16;19.83;;;10.15;;
22111;SDS011;11222;50.872;4.312;2023-04-01T06:13:01;17.80;;;10.23;;
22111;SDS011;11222;50.872;4.312;2023-04-01T06:25:05;17.00;;;10.77;;
22111;SDS011;11222;50.872;4.312;2023-04-01T06:27:36;17.08;;;9.38;;
22111;SDS011;11222;50.872;4.312;2023-04-01T06:46:48;17.65;;;8.65;;
22111;SDS011;11222;50.872;4.312;2023-04-01T06:54:44;19.37;;;8.83;;
22111;SDS011;11222;50.872;4.312;2023-04-01T06:59:39;14.05;;;8.40;;
22111;SDS011;11222;50.872;4.312;2023-04-01T07:04:36;14.50;;;7.97;;
22111;SDS011;11222;50.872;4.312;2023-04-01T07:07:09;12.48;;;6.80;;
22111;SDS011;11222;50.872;4.312;2023-04-01T07:09:55;14.13;;;7.03;;
22111;SDS011;11222;50.872;4.312;2023-04-01T07:14:55;10.63;;;5.60;;
22111;SDS011;11222;50.872;4.312;2023-04-01T07:17:25;9.98;;;5.65;;
22111;SDS011;11222;50.872;4.312;2023-04-01T07:20:03;10.90;;;5.13;;
22111;SDS011;11222;50.872;4.312;2023-04-01T07:22:39;7.03;;;4.82;;
22111;SDS011;11222;50.872;4.312;2023-04-01T07:25:18;9.02;;;5.22;;
22111;SDS011;11222;50.872;4.312;2023-04-01T07:27:47;5.72;;;3.90;;
22111;SDS011;11222;50.872;4.312;2023-04-01T07:30:16;4.53;;;3.67;;
22111;SDS011;11222;50.872;4.312;2023-04-01T07:32:44;7.55;;;4.00;;
22111;SDS011;11222;50.872;4.312;2023-04-01T07:35:17;3.67;;;3.22;;
22111;SDS011;11222;50.872;4.312;2023-04-01T07:49:03;6.43;;;4.10;;
22111;SDS011;11222;50.872;4.312;2023-04-01T07:54:13;5.20;;;3.08;;
22111;SDS011;11222;50.872;4.312;2023-04-01T07:56:46;5.88;;;3.00;;
22111;SDS011;11222;50.872;4.312;2023-04-01T08:02:15;3.60;;;2.70;;
22111;SDS011;11222;50.872;4.312;2023-04-01T08:05:19;5.25;;;2.50;;
22111;SDS011;11222;50.872;4.312;2023-04-01T08:07:59;4.60;;;2.60;;
22111;SDS011;11222;50.872;4.312;2023-04-01T08:10:36;5.03;;;2.70;;
22111;SDS011;11222;50.872;4.312;2023-04-01T08:21:25;4.28;;;2.63;;
22111;SDS011;11222;50.872;4.312;2023-04-01T08:24:46;5.25;;;2.60;;
22111;SDS011;11222;50.872;4.312;2023-04-01T08:26:53;2.50;;;2.00;;
22111;SDS011;11222;50.872;4.312;2023-04-01T08:29:58;4.03;;;2.50;;
22111;SDS011;11222;50.872;4.312;2023-04-01T08:32:35;2.67;;;1.83;;
22111;SDS011;11222;50.872;4.312;2023-04-01T08:35:14;3.28;;;2.50;;
22111;SDS011;11222;50.872;4.312;2023-04-01T08:37:45;4.15;;;2.42;;
22111;SDS011;11222;50.872;4.312;2023-04-01T08:45:48;3.50;;;2.70;;
22111;SDS011;11222;50.872;4.312;2023-04-01T08:54:13;2.42;;;2.10;;
22111;SDS011;11222;50.872;4.312;2023-04-01T09:02:51;3.53;;;2.10;;
22111;SDS011;11222;50.872;4.312;2023-04-01T09:08:42;3.17;;;2.50;;
22111;SDS011;11222;50.872;4.312;2023-04-01T09:11:21;4.65;;;2.70;;
22111;SDS011;11222;50.872;4.312;2023-04-01T09:19:37;3.65;;;3.10;;
22111;SDS011;11222;50.872;4.312;2023-04-01T09:28:27;7.32;;;3.30;;
22111;SDS011;11222;50.872;4.312;2023-04-01T09:36:45;5.32;;;3.33;;
22111;SDS011;11222;50.872;4.312;2023-04-01T09:42:41;5.33;;;3.13;;
22111;SDS011;11222;50.872;4.312;2023-04-01T10:04:35;4.00;;;2.80;;
22111;SDS011;11222;50.872;4.312;2023-04-01T10:17:59;5.53;;;3.00;;
22111;SDS011;11222;50.872;4.312;2023-04-01T10:26:19;7.10;;;3.45;;
22111;SDS011;11222;50.872;4.312;2023-04-01T10:34:33;5.38;;;2.20;;
22111;SDS011;11222;50.872;4.312;2023-04-01T10:58:21;2.20;;;1.75;;
22111;SDS011;11222;50.872;4.312;2023-04-01T11:01:20;2.63;;;2.08;;
22111;SDS011;11222;50.872;4.312;2023-04-01T11:15:42;3.05;;;2.22;;
22111;SDS011;11222;50.872;4.312;2023-04-01T11:29:01;3.55;;;2.40;;
22111;SDS011;11222;50.872;4.312;2023-04-01T11:31:31;4.25;;;2.70;;
22111;SDS011;11222;50.872;4.312;2023-04-01T11:37:28;3.53;;;2.70;;
22111;SDS011;11222;50.872;4.312;2023-04-01T11:40:14;5.38;;;3.05;;
22111;SDS011;11222;50.872;4.312;2023-04-01T11:43:06;2.60;;;2.40;;
22111;SDS011;11222;50.872;4.312;2023-04-01T11:49:01;2.88;;;2.20;;
22111;SDS011;11222;50.872;4.312;2023-04-01T11:54:16;2.92;;;2.03;;
22111;SDS011;11222;50.872;4.312;2023-04-01T12:13:31;3.92;;;2.30;;
22111;SDS011;11222;50.872;4.312;2023-04-01T12:18:59;4.05;;;3.58;;
22111;SDS011;11222;50.872;4.312;2023-04-01T12:21:26;4.32;;;2.63;;
22111;SDS011;11222;50.872;4.312;2023-04-01T12:23:59;4.03;;;2.80;;
22111;SDS011;11222;50.872;4.312;2023-04-01T12:32:30;4.57;;;3.00;;
22111;SDS011;11222;50.872;4.312;2023-04-01T12:37:50;4.57;;;2.80;;
22111;SDS011;11222;50.872;4.312;2023-04-01T12:54:17;4.65;;;3.10;;
22111;SDS011;11222;50.872;4.312;2023-04-01T12:57:04;4.30;;;3.38;;
22111;SDS011;11222;50.872;4.312;2023-04-01T13:02:55;4.57;;;2.70;;
22111;SDS011;11222;50.872;4.312;2023-04-01T13:08:39;2.42;;;2.20;;
22111;SDS011;11222;50.872;4.312;2023-04-01T13:11:09;2.75;;;2.20;;
22111;SDS011;11222;50.872;4.312;2023-04-01T13:14:10;2.50;;;2.30;;
22111;SDS011;11222;50.872;4.312;2023-04-01T13:17:05;2.85;;;2.30;;
22111;SDS011;11222;50.872;4.312;2023-04-01T13:19:41;4.32;;;2.13;;
22111;SDS011;11222;50.872;4.312;2023-04-01T13:25:05;2.85;;;1.98;;
22111;SDS011;11222;50.872;4.312;2023-04-01T13:27:42;3.35;;;2.13;;
22111;SDS011;11222;50.872;4.312;2023-04-01T13:33:04;2.42;;;1.95;;
22111;SDS011;11222;50.872;4.312;2023-04-01T13:43:49;3.03;;;1.88;;
22111;SDS011;11222;50.872;4.312;2023-04-01T13:51:45;2.78;;;2.10;;
22111;SDS011;11222;50.872;4.312;2023-04-01T13:57:16;3.22;;;2.10;;
22111;SDS011;11222;50.872;4.312;2023-04-01T14:08:38;4.72;;;2.65;;
22111;SDS011;11222;50.872;4.312;2023-04-01T14:22:40;2.60;;;2.08;;
22111;SDS011;11222;50.872;4.312;2023-04-01T14:25:27;3.88;;;2.25;;
22111;SDS011;11222;50.872;4.312;2023-04-01T14:28:33;5.05;;;2.00;;
22111;SDS011;11222;50.872;4.312;2023-04-01T14:31:18;3.97;;;2.13;;
22111;SDS011;11222;50.872;4.312;2023-04-01T14:39:33;2.13;;;1.55;;
22111;SDS011;11222;50.872;4.312;2023-04-01T14:50:15;1.92;;;1.67;;
22111;SDS011;11222;50.872;4.312;2023-04-01T14:52:52;3.95;;;1.77;;
22111;SDS011;11222;50.872;4.312;2023-04-01T14:55:29;2.58;;;1.77;;
22111;SDS011;11222;50.872;4.312;2023-04-01T14:58:13;2.25;;;1.88;;
22111;SDS011;11222;50.872;4.312;2023-04-01T15:11:23;3.08;;;2.00;;
22111;SDS011;11222;50.872;4.312;2023-04-01T15:19:48;2.40;;;2.00;;
22111;SDS011;11222;50.872;4.312;2023-04-01T15:24:41;2.95;;;1.77;;
22111;SDS011;11222;50.872;4.312;2023-04-01T15:27:12;3.13;;;2.10;;
22111;SDS011;11222;50.872;4.312;2023-04-01T15:35:39;4.72;;;2.10;;
22111;SDS011;11222;50.872;4.312;2023-04-01T15:43:46;2.55;;;2.00;;
22111;SDS011;11222;50.872;4.312;2023-04-01T15:49:20;2.73;;;1.80;;
22111;SDS011;11222;50.872;4.312;2023-04-01T16:00:46;3.20;;;1.60;;
22111;SDS011;11222;50.872;4.312;2023-04-01T16:22:30;2.97;;;2.08;;
22111;SDS011;11222;50.872;4.312;2023-04-01T16:36:20;4.05;;;2.20;;
22111;SDS011;11222;50.872;4.312;2023-04-01T16:39:11;3.45;;;2.30;;
22111;SDS011;11222;50.872;4.312;2023-04-01T16:47:37;3.75;;;2.20;;
22111;SDS011;11222;50.872;4.312;2023-04-01T16:50:12;8.18;;;4.22;;
22111;SDS011;11222;50.872;4.312;2023-04-01T16:55:17;3.30;;;2.50;;
22111;SDS011;11222;50.872;4.312;2023-04-01T16:57:46;4.78;;;2.30;;
22111;SDS011;11222;50.872;4.312;2023-04-01T17:00:28;5.03;;;3.17;;
22111;SDS011;11222;50.872;4.312;2023-04-01T17:03:11;4.43;;;2.90;;
22111;SDS011;11222;50.872;4.312;2023-04-01T17:05:55;3.05;;;2.58;;
22111;SDS011;11222;50.872;4.312;2023-04-01T17:17:11;3.47;;;2.60;;
22111;SDS011;11222;50.872;4.312;2023-04-01T17:20:07;3.13;;;2.60;;
22111;SDS011;11222;50.872;4.312;2023-04-01T17:22:52;3.40;;;3.10;;
22111;SDS011;11222;50.872;4.312;2023-04-01T17:25:34;3.75;;;2.75;;
22111;SDS011;11222;50.872;4.312;2023-04-01T17:31:20;4.05;;;2.67;;
22111;SDS011;11222;50.872;4.312;2023-04-01T17:33:54;4.32;;;2.33;;
22111;SDS011;11222;50.872;4.312;2023-04-01T17:43:08;3.40;;;2.60;;
22111;SDS011;11222;50.872;4.312;2023-04-01T17:51:14;5.18;;;3.08;;
22111;SDS011;11222;50.872;4.312;2023-04-01T17:59:32;3.97;;;3.58;;
22111;SDS011;11222;50.872;4.312;2023-04-01T18:08:11;4.85;;;4.22;;
22111;SDS011;11222;50.872;4.312;2023-04-01T18:10:41;6.32;;;5.22;;
22111;SDS011;11222;50.872;4.312;2023-04-01T18:13:27;7.03;;;6.28;;
22111;SDS011;11222;50.872;4.312;2023-04-01T18:19:30;6.70;;;5.88;;
22111;SDS011;11222;50.872;4.312;2023-04-01T18:24:40;9.27;;;6.60;;
22111;SDS011;11222;50.872;4.312;2023-04-01T18:32:44;7.18;;;6.10;;
22111;SDS011;11222;50.872;4.312;2023-04-01T18:35:29;8.43;;;6.65;;
22111;SDS011;11222;50.872;4.312;2023-04-01T18:38:13;8.20;;;6.90;;
22111;SDS011;11222;50.872;4.312;2023-04-01T18:52:31;8.68;;;6.57;;
22111;SDS011;11222;50.872;4.312;2023-04-01T19:00:24;11.10;;;8.85;;
22111;SDS011;11222;50.872;4.312;2023-04-01T19:03:12;14.82;;;10.32;;
22111;SDS011;11222;50.872;4.312;2023-04-01T19:05:47;14.75;;;10.45;;
22111;SDS011;11222;50.872;4.312;2023-04-01T19:13:44;17.58;;;12.80;;
22111;SDS011;11222;50.872;4.312;2023-04-01T19:21:47;25.55;;;15.27;;
22111;SDS011;11222;50.872;4.312;2023-04-01T19:24:36;25.73;;;16.85;;
22111;SDS011;11222;50.872;4.312;2023-04-01T19:27:28;30.35;;;17.00;;
22111;SDS011;11222;50.872;4.312;2023-04-01T19:38:25;27.80;;;17.35;;
22111;SDS011;11222;50.872;4.312;2023-04-01T19:46:48;31.50;;;17.67;;
22111;SDS011;11222;50.872;4.312;2023-04-01T19:49:24;29.30;;;16.40;;
22111;SDS011;11222;50.872;4.312;2023-04-01T19:54:44;36.85;;;17.77;;
22111;SDS011;11222;50.872;4.312;2023-04-01T20:00:09;34.30;;;19.23;;
22111;SDS011;11222;50.872;4.312;2023-04-01T20:07:51;33.55;;;17.98;;
22111;SDS011;11222;50.872;4.312;2023-04-01T20:18:56;30.00;;;17.65;;
22111;SDS011;11222;50.872;4.312;2023-04-01T20:23:57;36.10;;;17.73;;
22111;SDS011;11222;50.872;4.312;2023-04-01T20:26:37;30.27;;;17.23;;
22111;SDS011;11222;50.872;4.312;2023-04-01T20:29:17;33.88;;;17.67;;
22111;SDS011;11222;50.872;4.312;2023-04-01T20:37:36;29.33;;;16.05;;
22111;SDS011;11222;50.872;4.312;2023-04-01T20:43:23;22.75;;;14.07;;
22111;SDS011;11222;50.872;4.312;2023-04-01T20:45:57;26.27;;;15.25;;
22111;SDS011;11222;50.872;4.312;2023-04-01T20:51:29;30.65;;;15.43;;
22111;SDS011;11222;50.872;4.312;2023-04-01T21:00:03;39.92;;;19.70;;
22111;SDS011;11222;50.872;4.312;2023-04-01T21:02:47;43.35;;;21.40;;
22111;SDS011;11222;50.872;4.312;2023-04-01T21:07:51;45.10;;;22.25;;
22111;SDS011;11222;50.872;4.312;2023-04-01T21:13:33;50.58;;;23.83;;
22111;SDS011;11222;50.872;4.312;2023-04-01T21:16:30;44.67;;;22.42;;
22111;SDS011;11222;50.872;4.312;2023-04-01T21:19:27;50.08;;;22.40;;
22111;SDS011;11222;50.872;4.312;2023-04-01T21:24:55;48.20;;;22.70;;
22111;SDS011;11222;50.872;4.312;2023-04-01T21:38:42;44.35;;;19.70;;
22111;SDS011;11222;50.872;4.312;2023-04-01T21:50:07;36.77;;;18.57;;
22111;SDS011;11222;50.872;4.312;2023-04-01T21:52:47;35.45;;;18.75;;
22111;SDS011;11222;50.872;4.312;2023-04-01T21:55:42;35.75;;;19.25;;
22111;SDS011;11222;50.872;4.312;2023-04-01T22:07:20;34.72;;;17.98;;
22111;SDS011;11222;50.872;4.312;2023-04-01T22:12:23;33.15;;;19.05;;
22111;SDS011;11222;50.872;4.312;2023-04-01T22:15:03;37.45;;;20.58;;
22111;SDS011;11222;50.872;4.312;2023-04-01T22:17:51;33.25;;;20.80;;
22111;SDS011;11222;50.872;4.312;2023-04-01T22:20:31;32.78;;;20.17;;
22111;SDS011;11222;50.872;4.312;2023-04-01T22:23:12;33.45;;;19.83;;
22111;SDS011;11222;50.872;4.312;2023-04-01T22:28:40;34.20;;;20.80;;
22111;SDS011;11222;50.872;4.312;2023-04-01T22:31:14;30.90;;;19.92;;
22111;SDS011;11222;50.872;4.312;2023-04-01T22:34:05;30.60;;;20.80;;
22111;SDS011;11222;50.872;4.312;2023-04-01T22:41:54;32.88;;;21.50;;
22111;SDS011;11222;50.872;4.312;2023-04-01T22:49:57;36.58;;;24.00;;
22111;SDS011;11222;50.872;4.312;2023-04-01T22:52:38;34.55;;;23.58;;
22111;SDS011;11222;50.872;4.312;2023-04-01T22:55:12;37.35;;;25.08;;
22111;SDS011;11222;50.872;4.312;2023-04-01T23:01:15;31.52;;;22.17;;
22111;SDS011;11222;50.872;4.312;2023-04-01T23:03:32;33.28;;;21.88;;
22111;SDS011;11222;50.872;4.312;2023-04-01T23:06:04;27.00;;;19.20;;
22111;SDS011;11222;50.872;4.312;2023-04-01T23:11:03;26.60;;;18.30;;
22111;SDS011;11222;50.872;4.312;2023-04-01T23:13:37;25.55;;;18.08;;
22111;SDS011;11222;50.872;4.312;2023-04-01T23:16:10;27.98;;;18.52;;
22111;SDS011;11222;50.872;4.312;2023-04-01T23:19:40;29.02;;;20.38;;
22111;SDS011;11222;50.872;4.312;2023-04-01T23:21:51;32.10;;;20.73;;
22111;SDS011;11222;50.872;4.312;2023-04-01T23:28:17;35.05;;;21.30;;
22111;SDS011;11222;50.872;4.312;2023-04-01T23:35:59;34.17;;;22.50;;
22111;SDS011;11222;50.872;4.312;2023-04-01T23:38:31;39.15;;;25.08;;
22111;SDS011;11222;50.872;4.312;2023-04-01T23:41:00;38.92;;;24.05;;
22111;SDS011;11222;50.872;4.312;2023-04-01T23:43:28;40.28;;;24.23;;
22111;SDS011;11222;50.872;4.312;2023-04-01T23:45:57;41.78;;;25.85;;
22111;SDS011;11222;50.872;4.312;2023-04-01T23:48:33;36.50;;;23.17;;
22111;SDS011;11222;50.872;4.312;2023-04-01T23:51:25;37.63;;;23.85;;
22111;SDS011;11222;50.872;4.312;2023-04-01T23:53:56;37.75;;;23.35;;
22111;SDS011;11222;50.872;4.312;2023-04-01T23:56:41;35.58;;;23.73;;
22111;SDS011;11222;50.872;4.312;2023-04-01T23:59:14;37.92;;;24.00;;
